OIZJ  Jask  Airport

Jask, Iran

Add Bookmark
Status
Operational
Latitude Longitude
25° 39' 12" N 57° 47' 57" E
25.653601 57.799301
Local (DST + 5) UTC (GMT + 4)
Mar 5, 2015 03:19 Mar 5, 2015 11:49
Sunrise-Sunset Local UTC
Begin Civil Twilight 05:33 02:03
Sunrise 05:56 02:26
Sunset 05:43 14:13
End Civil Twilight 06:06 14:36

Current Weather

METAR Observed MVFR
OIZJ 050900Z 25010KT 5000 HZ SKC 26/20 Q1010 Thu, Mar 5, 2015 @ 09:00 UTC
(2 Hours, 49 Minutes ago)
Marginal Visual Flight Rules
Wind Visibility Clouds Conditions
250° at 10 knots (19 kph) 5000 meters
  • Clear skies
  • Haze
Temperatures Readings Precipitation
Current Temp 26°C (79°F)
Dewpoint 20°C (68°F)
Humidity 70%
Altimeter 29.82"Hg
Sea Level Pressure 1010mb
Field Elevation 13.12'
None Recorded

Additional weather within a 185.2km radius of OIZJ

Map ICAO Location
OMFJ 159.8km W (248°)

24 Hour Weather History

Loading
-

24 Hour Weather Graphs

Loading
-

CheckWX.com is intended as a tool to help pilots better visualize weather data. It is not intended as a substitute for an official weather briefing obtained from a Flight Service Station. CheckWX.com does not meet the FAA requirements for an official pre-flight weather briefing. Therefore, it's important that pilots still call and obtain an official FSS pre-flight weather briefing.